sensor_id;sensor_type;location;lat;lon;timestamp;P1;durP1;ratioP1;P2;durP2;ratioP2
78783;SDS011;68127;51.050;14.084;2024-01-11T00:00:29;10.75;;;4.93;;
78783;SDS011;68127;51.050;14.084;2024-01-11T00:02:54;15.18;;;5.57;;
78783;SDS011;68127;51.050;14.084;2024-01-11T00:05:19;12.25;;;5.75;;
78783;SDS011;68127;51.050;14.084;2024-01-11T00:07:45;13.38;;;5.47;;
78783;SDS011;68127;51.050;14.084;2024-01-11T00:10:10;12.73;;;5.45;;
78783;SDS011;68127;51.050;14.084;2024-01-11T00:12:35;11.30;;;5.47;;
78783;SDS011;68127;51.050;14.084;2024-01-11T00:15:00;10.35;;;5.60;;
78783;SDS011;68127;51.050;14.084;2024-01-11T00:17:26;11.50;;;5.47;;
78783;SDS011;68127;51.050;14.084;2024-01-11T00:19:51;10.93;;;5.32;;
78783;SDS011;68127;51.050;14.084;2024-01-11T00:22:17;11.48;;;5.78;;
78783;SDS011;68127;51.050;14.084;2024-01-11T00:24:42;12.75;;;5.30;;
78783;SDS011;68127;51.050;14.084;2024-01-11T00:27:07;11.55;;;5.07;;
78783;SDS011;68127;51.050;14.084;2024-01-11T00:29:33;13.10;;;5.57;;
78783;SDS011;68127;51.050;14.084;2024-01-11T00:31:59;11.90;;;5.55;;
78783;SDS011;68127;51.050;14.084;2024-01-11T00:34:25;11.32;;;5.55;;
78783;SDS011;68127;51.050;14.084;2024-01-11T00:36:50;14.15;;;6.15;;
78783;SDS011;68127;51.050;14.084;2024-01-11T00:39:15;12.25;;;5.80;;
78783;SDS011;68127;51.050;14.084;2024-01-11T00:41:40;16.23;;;6.47;;
78783;SDS011;68127;51.050;14.084;2024-01-11T00:44:06;11.85;;;5.53;;
78783;SDS011;68127;51.050;14.084;2024-01-11T00:46:32;12.82;;;5.65;;
78783;SDS011;68127;51.050;14.084;2024-01-11T00:48:57;12.32;;;5.32;;
78783;SDS011;68127;51.050;14.084;2024-01-11T00:51:22;14.77;;;6.07;;
78783;SDS011;68127;51.050;14.084;2024-01-11T00:53:48;11.50;;;5.93;;
78783;SDS011;68127;51.050;14.084;2024-01-11T00:56:17;12.93;;;5.40;;
78783;SDS011;68127;51.050;14.084;2024-01-11T00:58:43;12.65;;;5.82;;
78783;SDS011;68127;51.050;14.084;2024-01-11T01:01:08;12.07;;;5.57;;
78783;SDS011;68127;51.050;14.084;2024-01-11T01:03:34;15.00;;;5.82;;
78783;SDS011;68127;51.050;14.084;2024-01-11T01:06:00;13.13;;;5.43;;
78783;SDS011;68127;51.050;14.084;2024-01-11T01:08:26;14.00;;;5.65;;
78783;SDS011;68127;51.050;14.084;2024-01-11T01:10:51;13.02;;;5.28;;
78783;SDS011;68127;51.050;14.084;2024-01-11T01:13:17;12.40;;;5.97;;
78783;SDS011;68127;51.050;14.084;2024-01-11T01:15:42;13.85;;;5.38;;
78783;SDS011;68127;51.050;14.084;2024-01-11T01:18:07;11.75;;;5.57;;
78783;SDS011;68127;51.050;14.084;2024-01-11T01:20:32;15.02;;;6.35;;
78783;SDS011;68127;51.050;14.084;2024-01-11T01:22:58;13.63;;;6.18;;
78783;SDS011;68127;51.050;14.084;2024-01-11T01:25:23;11.65;;;5.85;;
78783;SDS011;68127;51.050;14.084;2024-01-11T01:27:48;14.88;;;6.00;;
78783;SDS011;68127;51.050;14.084;2024-01-11T01:30:13;15.30;;;5.65;;
78783;SDS011;68127;51.050;14.084;2024-01-11T01:32:39;14.35;;;5.85;;
78783;SDS011;68127;51.050;14.084;2024-01-11T01:35:04;13.30;;;5.38;;
78783;SDS011;68127;51.050;14.084;2024-01-11T01:37:29;12.50;;;6.03;;
78783;SDS011;68127;51.050;14.084;2024-01-11T01:39:55;13.35;;;5.88;;
78783;SDS011;68127;51.050;14.084;2024-01-11T01:42:20;14.23;;;5.82;;
78783;SDS011;68127;51.050;14.084;2024-01-11T01:44:45;13.35;;;5.78;;
78783;SDS011;68127;51.050;14.084;2024-01-11T01:47:11;13.75;;;5.97;;
78783;SDS011;68127;51.050;14.084;2024-01-11T01:49:37;14.27;;;6.00;;
78783;SDS011;68127;51.050;14.084;2024-01-11T01:52:03;13.52;;;5.72;;
78783;SDS011;68127;51.050;14.084;2024-01-11T01:54:28;16.27;;;6.55;;
78783;SDS011;68127;51.050;14.084;2024-01-11T01:56:54;13.38;;;6.15;;
78783;SDS011;68127;51.050;14.084;2024-01-11T01:59:19;15.52;;;6.32;;
78783;SDS011;68127;51.050;14.084;2024-01-11T02:01:46;13.85;;;6.25;;
78783;SDS011;68127;51.050;14.084;2024-01-11T02:04:11;15.25;;;6.47;;
78783;SDS011;68127;51.050;14.084;2024-01-11T02:06:36;17.40;;;7.20;;
78783;SDS011;68127;51.050;14.084;2024-01-11T02:09:02;16.48;;;7.18;;
78783;SDS011;68127;51.050;14.084;2024-01-11T02:11:30;17.17;;;7.45;;
78783;SDS011;68127;51.050;14.084;2024-01-11T02:13:55;15.07;;;6.88;;
78783;SDS011;68127;51.050;14.084;2024-01-11T02:16:22;15.77;;;7.47;;
78783;SDS011;68127;51.050;14.084;2024-01-11T02:18:47;14.93;;;6.95;;
78783;SDS011;68127;51.050;14.084;2024-01-11T02:21:14;17.23;;;6.20;;
78783;SDS011;68127;51.050;14.084;2024-01-11T02:23:42;17.35;;;6.95;;
78783;SDS011;68127;51.050;14.084;2024-01-11T02:26:10;11.90;;;5.72;;
78783;SDS011;68127;51.050;14.084;2024-01-11T02:28:36;13.52;;;5.70;;
78783;SDS011;68127;51.050;14.084;2024-01-11T02:31:01;13.80;;;6.70;;
78783;SDS011;68127;51.050;14.084;2024-01-11T02:33:27;16.40;;;7.30;;
78783;SDS011;68127;51.050;14.084;2024-01-11T02:35:52;14.77;;;6.60;;
78783;SDS011;68127;51.050;14.084;2024-01-11T02:38:17;15.38;;;7.07;;
78783;SDS011;68127;51.050;14.084;2024-01-11T02:40:43;15.98;;;6.88;;
78783;SDS011;68127;51.050;14.084;2024-01-11T02:43:09;16.83;;;7.00;;
78783;SDS011;68127;51.050;14.084;2024-01-11T02:45:35;17.85;;;7.55;;
78783;SDS011;68127;51.050;14.084;2024-01-11T02:48:00;17.58;;;8.38;;
78783;SDS011;68127;51.050;14.084;2024-01-11T02:50:25;16.70;;;7.57;;
78783;SDS011;68127;51.050;14.084;2024-01-11T02:52:51;17.25;;;8.35;;
78783;SDS011;68127;51.050;14.084;2024-01-11T02:55:16;15.98;;;7.63;;
78783;SDS011;68127;51.050;14.084;2024-01-11T02:57:41;18.70;;;8.13;;
78783;SDS011;68127;51.050;14.084;2024-01-11T03:00:06;17.75;;;7.90;;
78783;SDS011;68127;51.050;14.084;2024-01-11T03:02:32;16.80;;;7.47;;
78783;SDS011;68127;51.050;14.084;2024-01-11T03:04:57;17.38;;;8.52;;
78783;SDS011;68127;51.050;14.084;2024-01-11T03:07:23;19.42;;;8.05;;
78783;SDS011;68127;51.050;14.084;2024-01-11T03:09:48;18.15;;;8.52;;
78783;SDS011;68127;51.050;14.084;2024-01-11T03:12:13;19.33;;;8.18;;
78783;SDS011;68127;51.050;14.084;2024-01-11T03:14:38;19.70;;;9.15;;
78783;SDS011;68127;51.050;14.084;2024-01-11T03:17:04;20.42;;;8.40;;
78783;SDS011;68127;51.050;14.084;2024-01-11T03:19:30;20.23;;;8.32;;
78783;SDS011;68127;51.050;14.084;2024-01-11T03:21:55;13.57;;;6.82;;
78783;SDS011;68127;51.050;14.084;2024-01-11T03:24:20;19.35;;;7.75;;
78783;SDS011;68127;51.050;14.084;2024-01-11T03:26:47;16.95;;;7.95;;
78783;SDS011;68127;51.050;14.084;2024-01-11T03:29:12;15.77;;;7.40;;
78783;SDS011;68127;51.050;14.084;2024-01-11T03:31:38;18.15;;;8.15;;
78783;SDS011;68127;51.050;14.084;2024-01-11T03:34:06;17.02;;;7.38;;
78783;SDS011;68127;51.050;14.084;2024-01-11T03:36:31;16.25;;;8.10;;
78783;SDS011;68127;51.050;14.084;2024-01-11T03:38:56;17.60;;;8.23;;
78783;SDS011;68127;51.050;14.084;2024-01-11T03:41:22;21.02;;;8.23;;
78783;SDS011;68127;51.050;14.084;2024-01-11T03:43:47;21.20;;;8.88;;
78783;SDS011;68127;51.050;14.084;2024-01-11T03:46:12;17.20;;;8.95;;
78783;SDS011;68127;51.050;14.084;2024-01-11T03:48:37;22.33;;;8.93;;
78783;SDS011;68127;51.050;14.084;2024-01-11T03:51:03;22.67;;;10.20;;
78783;SDS011;68127;51.050;14.084;2024-01-11T03:53:28;19.80;;;8.85;;
78783;SDS011;68127;51.050;14.084;2024-01-11T03:55:54;21.17;;;9.20;;
78783;SDS011;68127;51.050;14.084;2024-01-11T03:58:19;20.77;;;8.95;;
78783;SDS011;68127;51.050;14.084;2024-01-11T04:00:44;15.55;;;8.20;;
78783;SDS011;68127;51.050;14.084;2024-01-11T04:03:09;16.95;;;7.85;;
78783;SDS011;68127;51.050;14.084;2024-01-11T04:05:35;16.30;;;8.15;;
78783;SDS011;68127;51.050;14.084;2024-01-11T04:08:03;20.73;;;8.70;;
78783;SDS011;68127;51.050;14.084;2024-01-11T04:10:29;19.05;;;8.43;;
78783;SDS011;68127;51.050;14.084;2024-01-11T04:12:54;18.23;;;7.78;;
78783;SDS011;68127;51.050;14.084;2024-01-11T04:15:19;20.10;;;8.02;;
78783;SDS011;68127;51.050;14.084;2024-01-11T04:17:45;17.00;;;7.78;;
78783;SDS011;68127;51.050;14.084;2024-01-11T04:20:10;16.00;;;7.85;;
78783;SDS011;68127;51.050;14.084;2024-01-11T04:22:36;16.52;;;6.45;;
78783;SDS011;68127;51.050;14.084;2024-01-11T04:25:01;13.80;;;7.47;;
78783;SDS011;68127;51.050;14.084;2024-01-11T04:27:26;16.63;;;7.50;;
78783;SDS011;68127;51.050;14.084;2024-01-11T04:29:51;19.35;;;8.60;;
78783;SDS011;68127;51.050;14.084;2024-01-11T04:32:17;23.40;;;10.00;;
78783;SDS011;68127;51.050;14.084;2024-01-11T04:34:42;20.70;;;9.27;;
78783;SDS011;68127;51.050;14.084;2024-01-11T04:37:08;18.73;;;9.20;;
78783;SDS011;68127;51.050;14.084;2024-01-11T04:39:33;22.30;;;8.45;;
78783;SDS011;68127;51.050;14.084;2024-01-11T04:41:58;17.67;;;7.32;;
78783;SDS011;68127;51.050;14.084;2024-01-11T04:44:25;17.52;;;7.80;;
78783;SDS011;68127;51.050;14.084;2024-01-11T04:46:50;14.02;;;6.93;;
78783;SDS011;68127;51.050;14.084;2024-01-11T04:49:16;16.55;;;7.28;;
78783;SDS011;68127;51.050;14.084;2024-01-11T04:51:41;18.60;;;8.25;;
78783;SDS011;68127;51.050;14.084;2024-01-11T04:54:06;19.15;;;7.82;;
78783;SDS011;68127;51.050;14.084;2024-01-11T04:56:31;17.73;;;7.68;;
78783;SDS011;68127;51.050;14.084;2024-01-11T04:58:57;21.05;;;9.05;;
78783;SDS011;68127;51.050;14.084;2024-01-11T05:01:23;22.20;;;9.20;;
78783;SDS011;68127;51.050;14.084;2024-01-11T05:03:48;18.45;;;8.02;;
78783;SDS011;68127;51.050;14.084;2024-01-11T05:06:21;19.52;;;7.55;;
78783;SDS011;68127;51.050;14.084;2024-01-11T05:08:47;24.02;;;10.35;;
78783;SDS011;68127;51.050;14.084;2024-01-11T05:11:17;23.00;;;10.35;;
78783;SDS011;68127;51.050;14.084;2024-01-11T05:13:43;20.73;;;9.15;;
78783;SDS011;68127;51.050;14.084;2024-01-11T05:18:45;22.10;;;9.95;;
78783;SDS011;68127;51.050;14.084;2024-01-11T05:21:10;19.35;;;9.57;;
78783;SDS011;68127;51.050;14.084;2024-01-11T05:23:35;25.73;;;10.65;;
78783;SDS011;68127;51.050;14.084;2024-01-11T05:26:00;20.80;;;9.85;;
78783;SDS011;68127;51.050;14.084;2024-01-11T05:28:26;24.02;;;9.93;;
78783;SDS011;68127;51.050;14.084;2024-01-11T05:30:51;21.17;;;10.13;;
78783;SDS011;68127;51.050;14.084;2024-01-11T05:33:17;21.40;;;11.02;;
78783;SDS011;68127;51.050;14.084;2024-01-11T05:35:42;21.13;;;10.18;;
78783;SDS011;68127;51.050;14.084;2024-01-11T05:38:07;21.70;;;8.95;;
78783;SDS011;68127;51.050;14.084;2024-01-11T05:40:32;25.00;;;10.13;;
78783;SDS011;68127;51.050;14.084;2024-01-11T05:42:58;19.63;;;9.57;;
78783;SDS011;68127;51.050;14.084;2024-01-11T05:45:23;20.80;;;9.90;;
78783;SDS011;68127;51.050;14.084;2024-01-11T05:47:48;23.20;;;10.52;;
78783;SDS011;68127;51.050;14.084;2024-01-11T05:50:13;24.23;;;9.98;;
78783;SDS011;68127;51.050;14.084;2024-01-11T05:52:39;25.13;;;10.23;;
78783;SDS011;68127;51.050;14.084;2024-01-11T05:55:04;22.40;;;10.07;;
78783;SDS011;68127;51.050;14.084;2024-01-11T05:57:30;37.10;;;12.85;;
78783;SDS011;68127;51.050;14.084;2024-01-11T05:59:55;40.03;;;16.30;;
78783;SDS011;68127;51.050;14.084;2024-01-11T06:02:20;56.55;;;18.45;;
78783;SDS011;68127;51.050;14.084;2024-01-11T06:04:47;53.17;;;19.02;;
78783;SDS011;68127;51.050;14.084;2024-01-11T06:07:14;66.05;;;22.00;;
78783;SDS011;68127;51.050;14.084;2024-01-11T06:09:39;50.33;;;17.23;;
78783;SDS011;68127;51.050;14.084;2024-01-11T06:12:04;34.38;;;13.90;;
78783;SDS011;68127;51.050;14.084;2024-01-11T06:14:30;28.38;;;12.80;;
78783;SDS011;68127;51.050;14.084;2024-01-11T06:16:55;24.48;;;10.57;;
78783;SDS011;68127;51.050;14.084;2024-01-11T06:19:20;24.67;;;12.82;;
78783;SDS011;68127;51.050;14.084;2024-01-11T06:21:46;24.70;;;11.27;;
78783;SDS011;68127;51.050;14.084;2024-01-11T06:24:12;26.70;;;12.00;;
78783;SDS011;68127;51.050;14.084;2024-01-11T06:26:37;24.38;;;10.85;;
78783;SDS011;68127;51.050;14.084;2024-01-11T06:29:02;26.67;;;11.93;;
78783;SDS011;68127;51.050;14.084;2024-01-11T06:31:27;25.25;;;11.90;;
78783;SDS011;68127;51.050;14.084;2024-01-11T06:33:56;24.38;;;12.02;;
78783;SDS011;68127;51.050;14.084;2024-01-11T06:36:21;25.90;;;11.57;;
78783;SDS011;68127;51.050;14.084;2024-01-11T06:38:46;24.30;;;11.43;;
78783;SDS011;68127;51.050;14.084;2024-01-11T06:41:12;25.83;;;11.45;;
78783;SDS011;68127;51.050;14.084;2024-01-11T06:43:37;23.88;;;11.23;;
78783;SDS011;68127;51.050;14.084;2024-01-11T06:46:05;27.80;;;10.88;;
78783;SDS011;68127;51.050;14.084;2024-01-11T06:48:31;31.92;;;12.32;;
78783;SDS011;68127;51.050;14.084;2024-01-11T06:50:56;23.92;;;11.13;;
78783;SDS011;68127;51.050;14.084;2024-01-11T06:53:22;26.42;;;12.30;;
78783;SDS011;68127;51.050;14.084;2024-01-11T06:55:47;29.70;;;11.43;;
78783;SDS011;68127;51.050;14.084;2024-01-11T06:58:13;25.40;;;10.77;;
78783;SDS011;68127;51.050;14.084;2024-01-11T07:00:38;26.35;;;11.38;;
78783;SDS011;68127;51.050;14.084;2024-01-11T07:03:07;23.92;;;10.60;;
78783;SDS011;68127;51.050;14.084;2024-01-11T07:05:33;28.67;;;11.05;;
78783;SDS011;68127;51.050;14.084;2024-01-11T07:07:58;27.13;;;12.00;;
78783;SDS011;68127;51.050;14.084;2024-01-11T07:10:25;26.45;;;10.57;;
78783;SDS011;68127;51.050;14.084;2024-01-11T07:12:50;25.17;;;10.77;;
78783;SDS011;68127;51.050;14.084;2024-01-11T07:15:15;25.95;;;11.10;;
78783;SDS011;68127;51.050;14.084;2024-01-11T07:17:41;24.95;;;11.55;;
78783;SDS011;68127;51.050;14.084;2024-01-11T07:20:07;26.25;;;11.38;;
78783;SDS011;68127;51.050;14.084;2024-01-11T07:22:32;26.02;;;10.50;;
78783;SDS011;68127;51.050;14.084;2024-01-11T07:24:58;20.33;;;10.02;;
78783;SDS011;68127;51.050;14.084;2024-01-11T07:27:23;22.08;;;10.55;;
78783;SDS011;68127;51.050;14.084;2024-01-11T07:29:48;25.13;;;11.05;;
78783;SDS011;68127;51.050;14.084;2024-01-11T07:32:14;23.08;;;10.27;;
78783;SDS011;68127;51.050;14.084;2024-01-11T07:34:39;26.23;;;11.60;;
78783;SDS011;68127;51.050;14.084;2024-01-11T07:37:04;25.15;;;10.90;;
78783;SDS011;68127;51.050;14.084;2024-01-11T07:39:30;23.70;;;11.18;;
78783;SDS011;68127;51.050;14.084;2024-01-11T07:41:55;23.90;;;12.25;;
78783;SDS011;68127;51.050;14.084;2024-01-11T07:44:21;26.25;;;12.82;;
78783;SDS011;68127;51.050;14.084;2024-01-11T07:46:46;57.47;;;25.98;;
78783;SDS011;68127;51.050;14.084;2024-01-11T07:49:11;59.50;;;23.10;;
78783;SDS011;68127;51.050;14.084;2024-01-11T07:51:37;47.10;;;22.50;;
78783;SDS011;68127;51.050;14.084;2024-01-11T07:54:03;41.13;;;18.58;;
78783;SDS011;68127;51.050;14.084;2024-01-11T07:56:29;38.80;;;17.10;;
78783;SDS011;68127;51.050;14.084;2024-01-11T07:58:55;34.55;;;16.63;;
78783;SDS011;68127;51.050;14.084;2024-01-11T08:01:20;24.33;;;12.13;;
78783;SDS011;68127;51.050;14.084;2024-01-11T08:03:45;27.42;;;11.57;;
78783;SDS011;68127;51.050;14.084;2024-01-11T08:06:12;25.25;;;11.50;;
78783;SDS011;68127;51.050;14.084;2024-01-11T08:08:37;29.48;;;12.93;;
78783;SDS011;68127;51.050;14.084;2024-01-11T08:11:04;27.55;;;12.57;;
78783;SDS011;68127;51.050;14.084;2024-01-11T08:13:29;24.67;;;11.02;;
78783;SDS011;68127;51.050;14.084;2024-01-11T08:15:56;23.52;;;11.05;;
78783;SDS011;68127;51.050;14.084;2024-01-11T08:18:22;31.05;;;12.57;;
78783;SDS011;68127;51.050;14.084;2024-01-11T08:20:47;32.00;;;12.90;;
78783;SDS011;68127;51.050;14.084;2024-01-11T08:23:13;30.48;;;13.93;;
78783;SDS011;68127;51.050;14.084;2024-01-11T08:25:38;34.90;;;13.90;;
78783;SDS011;68127;51.050;14.084;2024-01-11T08:28:04;33.10;;;14.68;;
78783;SDS011;68127;51.050;14.084;2024-01-11T08:30:29;26.98;;;13.48;;
78783;SDS011;68127;51.050;14.084;2024-01-11T08:32:54;32.88;;;13.65;;
78783;SDS011;68127;51.050;14.084;2024-01-11T08:35:20;33.67;;;14.13;;
78783;SDS011;68127;51.050;14.084;2024-01-11T08:37:46;26.27;;;12.40;;
78783;SDS011;68127;51.050;14.084;2024-01-11T08:40:11;26.77;;;12.20;;
78783;SDS011;68127;51.050;14.084;2024-01-11T08:42:36;29.27;;;13.25;;
78783;SDS011;68127;51.050;14.084;2024-01-11T08:45:04;27.70;;;12.35;;
78783;SDS011;68127;51.050;14.084;2024-01-11T08:47:32;24.50;;;11.00;;
78783;SDS011;68127;51.050;14.084;2024-01-11T08:50:00;26.33;;;12.60;;
78783;SDS011;68127;51.050;14.084;2024-01-11T08:52:25;25.42;;;10.25;;
78783;SDS011;68127;51.050;14.084;2024-01-11T08:54:51;30.25;;;12.98;;
78783;SDS011;68127;51.050;14.084;2024-01-11T08:57:16;24.08;;;12.30;;
78783;SDS011;68127;51.050;14.084;2024-01-11T08:59:42;27.85;;;13.38;;
78783;SDS011;68127;51.050;14.084;2024-01-11T09:02:07;25.60;;;12.20;;
78783;SDS011;68127;51.050;14.084;2024-01-11T09:04:32;29.80;;;12.05;;
78783;SDS011;68127;51.050;14.084;2024-01-11T09:06:58;24.83;;;11.57;;
78783;SDS011;68127;51.050;14.084;2024-01-11T09:09:23;29.70;;;13.63;;
78783;SDS011;68127;51.050;14.084;2024-01-11T09:11:49;30.40;;;13.25;;
78783;SDS011;68127;51.050;14.084;2024-01-11T09:14:14;26.92;;;12.45;;
78783;SDS011;68127;51.050;14.084;2024-01-11T09:16:39;31.73;;;13.43;;
78783;SDS011;68127;51.050;14.084;2024-01-11T09:19:05;33.08;;;14.40;;
78783;SDS011;68127;51.050;14.084;2024-01-11T09:21:30;27.13;;;13.85;;
78783;SDS011;68127;51.050;14.084;2024-01-11T09:23:55;29.33;;;12.45;;
78783;SDS011;68127;51.050;14.084;2024-01-11T09:26:21;31.23;;;14.38;;
78783;SDS011;68127;51.050;14.084;2024-01-11T09:28:47;32.42;;;14.15;;
78783;SDS011;68127;51.050;14.084;2024-01-11T09:31:12;33.13;;;14.77;;
78783;SDS011;68127;51.050;14.084;2024-01-11T09:33:38;32.65;;;14.80;;
78783;SDS011;68127;51.050;14.084;2024-01-11T09:36:04;34.53;;;15.88;;
78783;SDS011;68127;51.050;14.084;2024-01-11T09:38:29;32.25;;;14.38;;
78783;SDS011;68127;51.050;14.084;2024-01-11T09:40:59;38.10;;;15.88;;
78783;SDS011;68127;51.050;14.084;2024-01-11T09:43:33;40.38;;;16.45;;
78783;SDS011;68127;51.050;14.084;2024-01-11T09:45:58;39.22;;;17.60;;
78783;SDS011;68127;51.050;14.084;2024-01-11T09:48:27;41.95;;;18.38;;
78783;SDS011;68127;51.050;14.084;2024-01-11T09:50:52;40.30;;;17.98;;
78783;SDS011;68127;51.050;14.084;2024-01-11T09:53:18;47.22;;;22.80;;
78783;SDS011;68127;51.050;14.084;2024-01-11T09:55:45;42.25;;;18.88;;
78783;SDS011;68127;51.050;14.084;2024-01-11T09:58:11;52.75;;;21.05;;
78783;SDS011;68127;51.050;14.084;2024-01-11T10:00:37;48.30;;;18.85;;
78783;SDS011;68127;51.050;14.084;2024-01-11T10:03:02;49.70;;;20.52;;
78783;SDS011;68127;51.050;14.084;2024-01-11T10:05:28;41.05;;;18.60;;
78783;SDS011;68127;51.050;14.084;2024-01-11T10:07:54;44.90;;;19.95;;
78783;SDS011;68127;51.050;14.084;2024-01-11T10:10:19;42.25;;;18.20;;
78783;SDS011;68127;51.050;14.084;2024-01-11T10:12:45;45.80;;;19.52;;
78783;SDS011;68127;51.050;14.084;2024-01-11T10:15:10;52.90;;;20.88;;
78783;SDS011;68127;51.050;14.084;2024-01-11T10:17:44;41.65;;;18.10;;
78783;SDS011;68127;51.050;14.084;2024-01-11T10:20:13;46.08;;;19.15;;
78783;SDS011;68127;51.050;14.084;2024-01-11T10:22:39;38.47;;;18.20;;
78783;SDS011;68127;51.050;14.084;2024-01-11T10:25:12;45.55;;;19.85;;
78783;SDS011;68127;51.050;14.084;2024-01-11T10:27:42;43.97;;;18.90;;
78783;SDS011;68127;51.050;14.084;2024-01-11T10:30:08;42.15;;;19.65;;
78783;SDS011;68127;51.050;14.084;2024-01-11T10:32:38;46.13;;;19.40;;
78783;SDS011;68127;51.050;14.084;2024-01-11T10:35:03;44.30;;;18.50;;
78783;SDS011;68127;51.050;14.084;2024-01-11T10:37:30;41.35;;;19.13;;
78783;SDS011;68127;51.050;14.084;2024-01-11T10:39:56;45.58;;;19.50;;
78783;SDS011;68127;51.050;14.084;2024-01-11T10:42:23;45.35;;;20.77;;
78783;SDS011;68127;51.050;14.084;2024-01-11T10:44:49;45.75;;;21.20;;
78783;SDS011;68127;51.050;14.084;2024-01-11T10:47:17;53.45;;;20.40;;
78783;SDS011;68127;51.050;14.084;2024-01-11T10:49:44;43.33;;;18.48;;
78783;SDS011;68127;51.050;14.084;2024-01-11T10:52:09;48.33;;;19.55;;
78783;SDS011;68127;51.050;14.084;2024-01-11T10:54:37;49.42;;;19.17;;
78783;SDS011;68127;51.050;14.084;2024-01-11T10:57:03;44.92;;;19.52;;
78783;SDS011;68127;51.050;14.084;2024-01-11T10:59:31;45.50;;;19.40;;
78783;SDS011;68127;51.050;14.084;2024-01-11T11:01:57;42.20;;;18.50;;
78783;SDS011;68127;51.050;14.084;2024-01-11T11:04:24;45.20;;;20.13;;
78783;SDS011;68127;51.050;14.084;2024-01-11T11:06:54;41.08;;;19.02;;
78783;SDS011;68127;51.050;14.084;2024-01-11T11:09:20;49.13;;;20.33;;
78783;SDS011;68127;51.050;14.084;2024-01-11T11:11:46;47.92;;;20.15;;
78783;SDS011;68127;51.050;14.084;2024-01-11T11:14:13;50.72;;;20.45;;
78783;SDS011;68127;51.050;14.084;2024-01-11T11:16:39;46.47;;;18.67;;
78783;SDS011;68127;51.050;14.084;2024-01-11T11:19:04;51.25;;;20.35;;
78783;SDS011;68127;51.050;14.084;2024-01-11T11:21:31;46.70;;;19.83;;
78783;SDS011;68127;51.050;14.084;2024-01-11T11:23:56;39.45;;;17.80;;
78783;SDS011;68127;51.050;14.084;2024-01-11T11:26:21;45.58;;;20.23;;
78783;SDS011;68127;51.050;14.084;2024-01-11T11:28:47;43.42;;;17.88;;
78783;SDS011;68127;51.050;14.084;2024-01-11T11:31:13;45.78;;;18.70;;
78783;SDS011;68127;51.050;14.084;2024-01-11T11:33:38;52.35;;;19.50;;
78783;SDS011;68127;51.050;14.084;2024-01-11T11:36:05;42.63;;;18.23;;
78783;SDS011;68127;51.050;14.084;2024-01-11T11:38:37;41.23;;;18.83;;
78783;SDS011;68127;51.050;14.084;2024-01-11T11:41:03;46.28;;;19.98;;
78783;SDS011;68127;51.050;14.084;2024-01-11T11:43:29;44.65;;;18.40;;
78783;SDS011;68127;51.050;14.084;2024-01-11T11:45:54;43.45;;;18.50;;
78783;SDS011;68127;51.050;14.084;2024-01-11T11:49:03;47.63;;;18.40;;
78783;SDS011;68127;51.050;14.084;2024-01-11T11:51:14;46.50;;;17.58;;
78783;SDS011;68127;51.050;14.084;2024-01-11T11:53:40;44.97;;;19.55;;
78783;SDS011;68127;51.050;14.084;2024-01-11T11:56:06;45.22;;;17.48;;
78783;SDS011;68127;51.050;14.084;2024-01-11T11:58:34;46.53;;;19.90;;
78783;SDS011;68127;51.050;14.084;2024-01-11T12:01:00;36.83;;;17.73;;
78783;SDS011;68127;51.050;14.084;2024-01-11T12:03:30;37.58;;;17.58;;
78783;SDS011;68127;51.050;14.084;2024-01-11T12:05:57;38.30;;;17.75;;
78783;SDS011;68127;51.050;14.084;2024-01-11T12:08:23;39.83;;;17.95;;
78783;SDS011;68127;51.050;14.084;2024-01-11T12:10:48;43.67;;;18.73;;
78783;SDS011;68127;51.050;14.084;2024-01-11T12:13:14;38.25;;;17.92;;
78783;SDS011;68127;51.050;14.084;2024-01-11T12:15:39;43.78;;;17.80;;
78783;SDS011;68127;51.050;14.084;2024-01-11T12:18:05;37.90;;;15.68;;
78783;SDS011;68127;51.050;14.084;2024-01-11T12:20:32;36.30;;;16.95;;
78783;SDS011;68127;51.050;14.084;2024-01-11T12:22:58;42.35;;;17.08;;
78783;SDS011;68127;51.050;14.084;2024-01-11T12:25:23;41.50;;;18.55;;
78783;SDS011;68127;51.050;14.084;2024-01-11T12:27:48;38.28;;;17.35;;
78783;SDS011;68127;51.050;14.084;2024-01-11T12:30:14;36.95;;;17.25;;
78783;SDS011;68127;51.050;14.084;2024-01-11T12:32:42;39.15;;;18.02;;
78783;SDS011;68127;51.050;14.084;2024-01-11T12:35:08;44.45;;;18.08;;
78783;SDS011;68127;51.050;14.084;2024-01-11T12:37:33;43.60;;;18.85;;
78783;SDS011;68127;51.050;14.084;2024-01-11T12:39:58;40.85;;;16.77;;
78783;SDS011;68127;51.050;14.084;2024-01-11T12:42:24;47.33;;;18.27;;
78783;SDS011;68127;51.050;14.084;2024-01-11T12:44:50;39.13;;;16.83;;
78783;SDS011;68127;51.050;14.084;2024-01-11T12:47:16;42.13;;;17.33;;
78783;SDS011;68127;51.050;14.084;2024-01-11T12:49:43;38.38;;;17.13;;
78783;SDS011;68127;51.050;14.084;2024-01-11T12:52:15;40.20;;;18.02;;
78783;SDS011;68127;51.050;14.084;2024-01-11T12:54:44;39.95;;;15.95;;
78783;SDS011;68127;51.050;14.084;2024-01-11T12:57:17;37.97;;;17.30;;
78783;SDS011;68127;51.050;14.084;2024-01-11T12:59:44;38.50;;;17.77;;
78783;SDS011;68127;51.050;14.084;2024-01-11T13:02:10;37.55;;;16.45;;
78783;SDS011;68127;51.050;14.084;2024-01-11T13:04:38;39.50;;;15.90;;
78783;SDS011;68127;51.050;14.084;2024-01-11T13:07:04;39.60;;;16.77;;
78783;SDS011;68127;51.050;14.084;2024-01-11T13:09:29;37.95;;;17.00;;
78783;SDS011;68127;51.050;14.084;2024-01-11T13:11:54;37.88;;;15.90;;
78783;SDS011;68127;51.050;14.084;2024-01-11T13:14:19;38.30;;;15.98;;
78783;SDS011;68127;51.050;14.084;2024-01-11T13:16:45;44.72;;;17.77;;
78783;SDS011;68127;51.050;14.084;2024-01-11T13:19:11;37.60;;;16.77;;
78783;SDS011;68127;51.050;14.084;2024-01-11T13:21:36;38.67;;;15.90;;
78783;SDS011;68127;51.050;14.084;2024-01-11T13:24:02;35.97;;;17.13;;
78783;SDS011;68127;51.050;14.084;2024-01-11T13:26:28;45.95;;;20.83;;
78783;SDS011;68127;51.050;14.084;2024-01-11T13:28:53;38.88;;;17.02;;
78783;SDS011;68127;51.050;14.084;2024-01-11T13:31:21;41.38;;;18.17;;
78783;SDS011;68127;51.050;14.084;2024-01-11T13:33:47;48.90;;;18.77;;
78783;SDS011;68127;51.050;14.084;2024-01-11T13:36:13;48.05;;;19.85;;
78783;SDS011;68127;51.050;14.084;2024-01-11T13:38:39;43.90;;;19.63;;
78783;SDS011;68127;51.050;14.084;2024-01-11T13:41:04;47.95;;;18.90;;
78783;SDS011;68127;51.050;14.084;2024-01-11T13:43:32;44.10;;;18.48;;
78783;SDS011;68127;51.050;14.084;2024-01-11T13:45:58;48.97;;;19.85;;
78783;SDS011;68127;51.050;14.084;2024-01-11T13:48:23;43.60;;;17.65;;
78783;SDS011;68127;51.050;14.084;2024-01-11T13:50:48;41.15;;;17.75;;
78783;SDS011;68127;51.050;14.084;2024-01-11T13:53:14;39.22;;;17.63;;
78783;SDS011;68127;51.050;14.084;2024-01-11T13:55:39;42.47;;;18.52;;
78783;SDS011;68127;51.050;14.084;2024-01-11T13:58:04;43.92;;;18.77;;
78783;SDS011;68127;51.050;14.084;2024-01-11T14:00:30;40.58;;;17.65;;
78783;SDS011;68127;51.050;14.084;2024-01-11T14:02:55;39.45;;;17.02;;
78783;SDS011;68127;51.050;14.084;2024-01-11T14:05:21;42.17;;;17.98;;
78783;SDS011;68127;51.050;14.084;2024-01-11T14:07:46;43.20;;;17.63;;